Time;durP1;ratioP1;P1;durP2;ratioP2;P2;SDS_P1;SDS_P2;PMS_P1;PMS_P2;Temp;Humidity;BMP_temperature;BMP_pressure;BME280_temperature;BME280_humidity;BME280_pressure;Samples;Min_cycle;Max_cycle;Signal;HPM_P1;HPM_P2
2023/01/08 00:00:06;;;;;;;;;7.00;5.67;;;;;11.91;70.62;99766.66;5037497;28;45411;-55
2023/01/08 00:02:31;;;;;;;;;7.67;7.33;;;;;11.90;70.91;99771.06;5025899;28;45416;-54
2023/01/08 00:04:56;;;;;;;;;2.00;2.00;;;;;11.91;70.60;99766.66;5036962;28;45483;-56
2023/01/08 00:07:22;;;;;;;;;6.00;5.00;;;;;11.91;71.50;99769.28;5035884;28;54167;-48
2023/01/08 00:09:49;;;;;;;;;9.67;7.00;;;;;11.85;70.54;99749.34;5042808;28;45475;-59
2023/01/08 00:12:15;;;;;;;;;6.33;6.33;;;;;11.82;70.61;99746.00;5038886;28;45449;-55
2023/01/08 00:14:40;;;;;;;;;9.00;7.00;;;;;11.90;71.28;99752.63;5040014;28;45501;-52
2023/01/08 00:17:05;;;;;;;;;8.00;6.00;;;;;11.92;71.04;99755.16;5037034;28;45530;-58
2023/01/08 00:19:31;;;;;;;;;5.33;5.33;;;;;11.93;71.62;99748.97;5036798;28;45488;-55
2023/01/08 00:21:56;;;;;;;;;5.67;5.67;;;;;11.84;71.14;99750.28;5036886;28;45392;-53
2023/01/08 00:24:22;;;;;;;;;7.33;4.67;;;;;11.82;71.06;99733.72;5036594;28;45374;-50
2023/01/08 00:26:47;;;;;;;;;3.33;3.33;;;;;11.89;70.72;99755.34;5040720;28;45486;-54
2023/01/08 00:29:13;;;;;;;;;9.00;7.00;;;;;11.89;70.80;99750.91;5036491;28;45422;-53
2023/01/08 00:31:38;;;;;;;;;11.00;8.33;;;;;11.86;70.37;99744.97;5036764;28;45471;-52
2023/01/08 00:34:03;;;;;;;;;3.67;3.67;;;;;11.89;70.72;99760.59;5036342;28;45431;-56
2023/01/08 00:36:29;;;;;;;;;8.33;6.33;;;;;11.83;70.76;99745.09;5034949;28;46164;-54
2023/01/08 00:38:54;;;;;;;;;6.00;6.00;;;;;11.81;70.63;99749.59;5036205;28;45437;-56
2023/01/08 00:41:20;;;;;;;;;7.00;6.33;;;;;11.80;70.74;99738.22;5036588;28;45473;-53
2023/01/08 00:43:45;;;;;;;;;4.67;4.67;;;;;11.84;70.67;99752.06;5017584;28;45456;-57
2023/01/08 00:46:10;;;;;;;;;6.00;5.00;;;;;11.78;70.09;99734.81;5042612;28;51901;-58
2023/01/08 00:48:37;;;;;;;;;6.33;4.67;;;;;11.80;70.87;99743.47;5036373;28;45479;-57
2023/01/08 00:51:03;;;;;;;;;8.33;8.00;;;;;11.84;70.28;99741.53;5035836;28;45450;-60
2023/01/08 00:53:29;;;;;;;;;5.67;4.00;;;;;11.87;70.87;99730.84;5040596;28;45657;-57
2023/01/08 00:56:03;;;;;;;;;7.00;4.00;;;;;11.86;71.11;99721.25;5038983;28;45419;-60
2023/01/08 00:58:28;;;;;;;;;8.00;7.00;;;;;11.86;70.39;99718.63;5042156;28;45492;-56
2023/01/08 01:00:53;;;;;;;;;5.33;5.33;;;;;11.83;69.96;99716.13;5037880;28;45371;-55
2023/01/08 01:03:19;;;;;;;;;4.00;4.00;;;;;11.83;70.35;99729.28;5018476;28;45615;-54
2023/01/08 01:05:44;;;;;;;;;4.67;4.67;;;;;11.81;70.10;99724.09;5037655;28;45990;-55
2023/01/08 01:08:09;;;;;;;;;3.67;3.67;;;;;11.76;70.41;99715.59;5034708;28;52374;-58
2023/01/08 01:10:37;;;;;;;;;6.00;6.00;;;;;11.78;70.69;99721.63;5036638;28;45494;-52
2023/01/08 01:13:02;;;;;;;;;6.00;6.00;;;;;11.79;69.54;99706.66;5038315;28;45341;-57
2023/01/08 01:15:28;;;;;;;;;3.33;3.00;;;;;11.78;69.96;99708.47;5036055;28;47274;-53
2023/01/08 01:17:53;;;;;;;;;4.33;4.33;;;;;11.77;70.15;99709.41;5036137;28;45345;-58
2023/01/08 01:20:19;;;;;;;;;4.00;4.00;;;;;11.71;69.48;99701.81;5036307;28;45380;-54
2023/01/08 01:22:44;;;;;;;;;4.67;3.00;;;;;11.76;69.71;99705.06;5035966;28;45665;-57
2023/01/08 01:25:10;;;;;;;;;2.33;2.33;;;;;11.72;69.73;99695.63;5048492;28;46009;-55
2023/01/08 01:27:35;;;;;;;;;3.67;3.33;;;;;11.73;69.71;99703.44;5035440;28;45463;-56
2023/01/08 01:30:01;;;;;;;;;3.33;3.33;;;;;11.74;69.84;99704.31;5035958;28;45643;-56
2023/01/08 01:32:26;;;;;;;;;4.00;4.00;;;;;11.74;69.97;99714.84;5042296;28;45591;-60
2023/01/08 01:34:52;;;;;;;;;7.33;7.33;;;;;11.73;69.56;99703.44;5047781;28;45928;-59
2023/01/08 01:37:17;;;;;;;;;3.00;3.00;;;;;11.75;69.37;99698.09;5034325;28;45533;-56
2023/01/08 01:39:42;;;;;;;;;2.67;2.00;;;;;11.75;69.96;99694.63;5035860;28;45510;-59
2023/01/08 01:44:59;;;;;;;;;4.00;4.00;;;;;11.75;69.71;99705.16;5035723;28;45375;-57
2023/01/08 01:47:39;;;;;;;;;6.00;6.00;;;;;11.70;69.32;99714.13;5035133;28;45490;-56
2023/01/08 01:50:16;;;;;;;;;2.00;2.00;;;;;11.66;69.06;99709.13;5035190;28;45435;-56
2023/01/08 01:52:52;;;;;;;;;4.00;4.00;;;;;11.64;69.48;99719.75;5042421;28;45368;-54
2023/01/08 01:55:18;;;;;;;;;2.67;2.67;;;;;11.61;69.74;99714.66;5042027;28;45355;-54
2023/01/08 01:57:49;;;;;;;;;2.33;2.33;;;;;11.60;69.08;99712.09;5035411;28;45516;-57
2023/01/08 02:00:15;;;;;;;;;2.00;2.00;;;;;11.61;69.22;99719.91;5035753;28;45455;-55
2023/01/08 02:02:40;;;;;;;;;6.67;3.67;;;;;11.61;69.15;99712.00;5035516;28;45513;-59
2023/01/08 02:05:07;;;;;;;;;3.33;3.33;;;;;11.62;69.26;99715.50;5035023;28;45438;-58
2023/01/08 02:07:55;;;;;;;;;3.00;2.67;;;;;11.61;68.94;99729.59;5038595;28;45635;-55
2023/01/08 02:10:29;;;;;;;;;2.00;2.00;;;;;11.58;68.45;99713.94;5017428;28;45425;-54
2023/01/08 02:13:07;;;;;;;;;3.33;3.33;;;;;11.61;68.45;99719.91;5017591;28;45478;-54
2023/01/08 02:15:57;;;;;;;;;4.00;3.00;;;;;11.61;69.44;99721.72;5035370;28;45555;-55
2023/01/08 02:18:33;;;;;;;;;3.33;3.33;;;;;11.63;68.82;99719.81;5040539;28;45808;-58
2023/01/08 02:21:10;;;;;;;;;2.33;2.33;;;;;11.64;69.48;99714.47;5034847;28;45743;-51
2023/01/08 02:23:43;;;;;;;;;2.00;2.00;;;;;11.62;69.01;99720.75;5021772;28;45488;-53
2023/01/08 02:26:22;;;;;;;;;3.00;3.00;;;;;11.61;68.90;99716.44;5034099;28;45305;-53
2023/01/08 02:29:09;;;;;;;;;4.00;4.00;;;;;11.61;69.05;99725.19;5032892;28;45534;-56
2023/01/08 02:31:39;;;;;;;;;2.00;2.00;;;;;11.63;68.75;99720.69;5035165;28;45384;-59
2023/01/08 02:34:04;;;;;;;;;2.33;2.00;;;;;11.62;69.33;99726.03;5035076;28;45514;-56
2023/01/08 02:36:42;;;;;;;;;4.67;2.00;;;;;11.62;69.08;99729.50;5036060;28;45978;-56
2023/01/08 02:39:25;;;;;;;;;2.00;2.00;;;;;11.58;69.42;99722.72;5038302;28;45438;-57
2023/01/08 02:42:11;;;;;;;;;3.00;3.00;;;;;11.55;69.67;99724.66;5046239;28;45529;-56
2023/01/08 02:44:58;;;;;;;;;3.00;2.00;;;;;11.52;70.37;99720.41;5025996;28;45463;-55
2023/01/08 02:47:50;;;;;;;;;1.67;1.67;;;;;11.57;70.05;99710.47;5039786;28;45446;-55
2023/01/08 02:50:40;;;;;;;;;1.67;1.67;;;;;11.54;69.88;99710.63;5038146;28;45519;-52
2023/01/08 02:53:09;;;;;;;;;2.00;2.00;;;;;11.55;70.11;99714.13;5029137;28;45451;-57
2023/01/08 02:55:38;;;;;;;;;1.00;1.00;;;;;11.54;69.31;99705.38;5037760;28;45403;-58
2023/01/08 02:58:05;;;;;;;;;1.00;0.00;;;;;11.53;69.44;99713.38;5037891;28;46289;-52
2023/01/08 03:00:31;;;;;;;;;2.00;2.00;;;;;11.57;69.19;99717.53;5037085;28;45577;-53
2023/01/08 03:03:09;;;;;;;;;2.00;2.00;;;;;11.47;69.37;99690.81;5039703;28;45577;-52
2023/01/08 03:05:39;;;;;;;;;2.00;2.00;;;;;11.58;70.45;99709.56;5045035;28;45458;-56
2023/01/08 03:08:05;;;;;;;;;1.67;1.67;;;;;11.57;69.68;99701.72;5037723;28;46627;-56
2023/01/08 03:10:31;;;;;;;;;2.67;1.00;;;;;11.55;69.78;99696.53;5038003;28;45435;-57
2023/01/08 03:13:18;;;;;;;;;2.00;2.00;;;;;11.53;69.15;99693.16;5038123;28;45455;-61
2023/01/08 03:15:54;;;;;;;;;1.33;1.33;;;;;11.55;69.73;99703.56;5044598;28;45393;-55
2023/01/08 03:18:28;;;;;;;;;2.00;2.00;;;;;11.57;70.17;99686.75;5038226;28;46298;-58
2023/01/08 03:20:54;;;;;;;;;3.00;2.00;;;;;11.59;69.53;99690.19;5037984;28;45570;-57
2023/01/08 03:23:22;;;;;;;;;3.00;1.00;;;;;11.63;69.73;99697.00;5040179;28;45427;-56
2023/01/08 03:25:48;;;;;;;;;3.00;2.00;;;;;11.62;69.79;99683.91;5045553;28;45542;-57
2023/01/08 03:28:23;;;;;;;;;1.00;1.00;;;;;11.64;70.03;99684.66;5047859;28;45418;-58
2023/01/08 03:30:51;;;;;;;;;0.00;0.00;;;;;11.66;69.98;99696.81;5023982;28;45478;-56
2023/01/08 03:33:18;;;;;;;;;0.33;0.33;;;;;11.65;69.19;99683.72;5054097;28;45561;-59
2023/01/08 03:35:48;;;;;;;;;2.00;2.00;;;;;11.64;69.53;99684.66;5036697;28;45522;-54
2023/01/08 03:38:23;;;;;;;;;1.67;1.67;;;;;11.62;69.10;99687.38;5037472;28;45452;-59
2023/01/08 03:40:54;;;;;;;;;1.33;1.33;;;;;11.59;70.36;99674.38;5046451;28;45550;-52
2023/01/08 03:43:20;;;;;;;;;1.33;1.33;;;;;11.55;70.00;99667.56;5037331;28;45455;-58
2023/01/08 03:45:52;;;;;;;;;1.00;1.00;;;;;11.58;69.52;99664.78;5037608;28;45419;-53
2023/01/08 03:48:20;;;;;;;;;2.00;2.00;;;;;11.57;69.46;99656.94;5036567;28;45454;-52
2023/01/08 03:50:46;;;;;;;;;1.00;1.00;;;;;11.58;69.84;99674.44;5036830;28;46306;-58
2023/01/08 03:53:11;;;;;;;;;2.00;2.00;;;;;11.56;69.40;99666.66;5042961;28;45517;-57
2023/01/08 03:55:37;;;;;;;;;2.00;2.00;;;;;11.55;68.95;99667.56;5036940;28;45506;-55
2023/01/08 03:58:02;;;;;;;;;3.00;2.00;;;;;11.52;70.18;99667.72;5036928;28;46039;-55
2023/01/08 04:00:27;;;;;;;;;1.00;1.00;;;;;11.52;69.84;99667.72;5015768;28;45653;-56
2023/01/08 04:02:53;;;;;;;;;0.67;0.67;;;;;11.57;69.63;99667.50;5038929;28;45460;-59
2023/01/08 04:05:19;;;;;;;;;3.33;2.00;;;;;11.55;69.21;99661.44;5046398;28;45482;-57
2023/01/08 04:07:44;;;;;;;;;2.00;1.00;;;;;11.53;68.95;99658.06;5036928;28;47614;-59
2023/01/08 04:10:09;;;;;;;;;2.33;1.33;;;;;11.52;69.80;99651.94;5046723;28;45443;-54
2023/01/08 04:12:35;;;;;;;;;3.00;1.00;;;;;11.52;69.38;99651.94;5037203;28;45533;-57
2023/01/08 04:15:00;;;;;;;;;1.00;1.00;;;;;11.49;69.78;99644.19;5036902;28;45419;-59
2023/01/08 04:17:25;;;;;;;;;1.67;0.67;;;;;11.44;68.98;99628.66;5037048;28;47859;-58
2023/01/08 04:19:51;;;;;;;;;1.00;1.00;;;;;11.45;69.82;99640.06;5036273;28;45471;-56
2023/01/08 04:22:16;;;;;;;;;0.67;0.67;;;;;11.45;69.17;99632.16;5026004;28;51625;-53
2023/01/08 04:24:41;;;;;;;;;1.33;1.33;;;;;11.45;69.31;99622.47;5035874;28;45573;-54
2023/01/08 04:27:07;;;;;;;;;1.00;1.00;;;;;11.47;68.78;99622.38;5038167;28;45715;-54
2023/01/08 04:29:32;;;;;;;;;1.33;1.00;;;;;11.45;69.40;99611.09;5037129;28;45368;-60
2023/01/08 04:31:58;;;;;;;;;1.00;1.00;;;;;11.45;69.57;99621.63;5036978;28;45372;-53
2023/01/08 04:34:24;;;;;;;;;2.00;2.00;;;;;11.45;69.37;99619.00;5035523;28;45496;-56
2023/01/08 04:36:49;;;;;;;;;2.00;2.00;;;;;11.45;70.04;99619.84;5037230;28;53683;-56
2023/01/08 04:39:14;;;;;;;;;2.33;2.33;;;;;11.47;69.62;99615.34;5046486;28;51146;-56
2023/01/08 04:41:40;;;;;;;;;3.00;1.33;;;;;11.49;68.52;99604.72;5036154;28;45620;-58
2023/01/08 04:44:05;;;;;;;;;2.00;2.00;;;;;11.45;69.14;99598.78;5036188;28;45626;-58
2023/01/08 04:46:30;;;;;;;;;2.00;2.00;;;;;11.52;69.74;99598.41;5018749;28;46101;-56
2023/01/08 04:48:56;;;;;;;;;2.67;2.67;;;;;11.51;69.24;99592.31;5036898;28;45466;-59
2023/01/08 04:51:22;;;;;;;;;1.67;1.67;;;;;11.51;69.33;99592.31;5036117;28;45408;-56
2023/01/08 04:53:47;;;;;;;;;1.00;1.00;;;;;11.46;68.85;99583.81;5017775;28;45667;-54
2023/01/08 04:56:13;;;;;;;;;3.00;1.00;;;;;11.48;69.62;99584.59;5018779;28;46883;-56
2023/01/08 04:58:38;;;;;;;;;4.00;2.67;;;;;11.49;68.56;99589.75;5027116;28;45444;-59
2023/01/08 05:01:19;;;;;;;;;2.67;2.00;;;;;11.48;69.27;99585.44;5037356;28;45454;-60
2023/01/08 05:03:44;;;;;;;;;3.00;1.33;;;;;11.46;69.87;99583.81;5036577;28;45504;-57
2023/01/08 05:06:09;;;;;;;;;2.67;1.33;;;;;11.43;69.69;99573.47;5035421;28;45398;-56
2023/01/08 05:08:35;;;;;;;;;1.00;1.00;;;;;11.40;70.04;99576.25;5036429;28;45375;-55
2023/01/08 05:11:01;;;;;;;;;3.00;1.67;;;;;11.35;69.68;99563.34;5026666;28;45601;-52
2023/01/08 05:13:26;;;;;;;;;1.67;1.67;;;;;11.39;69.60;99569.28;5037940;28;45625;-55
2023/01/08 05:15:52;;;;;;;;;1.67;1.67;;;;;11.39;69.98;99580.69;5036381;28;45989;-55
2023/01/08 05:18:17;;;;;;;;;1.67;1.00;;;;;11.41;70.12;99570.91;5036072;28;45479;-57
2023/01/08 05:20:43;;;;;;;;;1.00;1.00;;;;;11.43;69.85;99587.47;5036592;28;45407;-55
2023/01/08 05:23:08;;;;;;;;;2.00;0.33;;;;;11.44;69.54;99577.78;5039371;28;45642;-60
2023/01/08 05:25:34;;;;;;;;;1.00;1.00;;;;;11.42;69.72;99577.88;5035742;28;50284;-53
2023/01/08 05:27:59;;;;;;;;;1.67;1.67;;;;;11.42;70.34;99563.88;5036054;28;45536;-56
2023/01/08 05:30:25;;;;;;;;;1.00;1.00;;;;;11.37;69.75;99565.91;5035957;28;45445;-53
2023/01/08 05:32:50;;;;;;;;;2.00;1.00;;;;;11.34;70.30;99574.81;5036137;28;45468;-59
2023/01/08 05:35:15;;;;;;;;;1.00;1.00;;;;;11.29;70.77;99563.69;5036805;28;45604;-58
2023/01/08 05:37:41;;;;;;;;;1.00;1.00;;;;;11.28;69.86;99565.47;5035939;28;45421;-59
2023/01/08 05:40:06;;;;;;;;;1.00;1.00;;;;;11.30;71.29;99578.53;5035705;28;45490;-55
2023/01/08 05:42:36;;;;;;;;;2.33;1.33;;;;;11.31;71.24;99621.50;5035716;28;45413;-56
2023/01/08 05:45:03;;;;;;;;;0.00;0.00;;;;;11.21;71.49;99627.28;5034766;28;46272;-57
2023/01/08 05:47:30;;;;;;;;;0.00;0.00;;;;;11.12;68.65;99627.75;5035659;28;45511;-56
2023/01/08 05:49:55;;;;;;;;;0.00;0.00;;;;;11.07;67.52;99624.53;5017283;28;45463;-56
2023/01/08 05:52:21;;;;;;;;;0.00;0.00;;;;;11.05;68.13;99619.34;5016644;28;45380;-59
2023/01/08 05:54:46;;;;;;;;;0.00;0.00;;;;;11.05;67.35;99614.06;5016717;28;46406;-57
2023/01/08 05:57:11;;;;;;;;;2.00;0.00;;;;;11.06;66.71;99604.41;5035491;28;49877;-53
2023/01/08 05:59:36;;;;;;;;;0.00;0.00;;;;;11.04;66.62;99604.50;5032303;28;45444;-56
2023/01/08 06:02:02;;;;;;;;;0.00;0.00;;;;;11.03;66.32;99589.63;5033780;28;45693;-56
2023/01/08 06:04:27;;;;;;;;;0.00;0.00;;;;;11.04;66.40;99598.34;5033426;28;45388;-55
2023/01/08 06:06:53;;;;;;;;;0.00;0.00;;;;;11.00;65.90;99595.06;5034461;28;46552;-54
2023/01/08 06:09:18;;;;;;;;;0.00;0.00;;;;;11.00;65.19;99592.41;5032653;28;45380;-58
2023/01/08 06:11:44;;;;;;;;;0.00;0.00;;;;;10.92;65.27;99589.34;5024902;28;45530;-58
2023/01/08 06:14:09;;;;;;;;;1.33;0.00;;;;;10.90;65.70;99574.56;5038959;28;45457;-58
2023/01/08 06:16:34;;;;;;;;;0.00;0.00;;;;;10.90;65.06;99579.84;5049116;28;45379;-54
2023/01/08 06:19:00;;;;;;;;;0.00;0.00;;;;;10.87;65.58;99580.84;5038871;28;45714;-57
2023/01/08 06:21:25;;;;;;;;;0.00;0.00;;;;;10.83;65.36;99597.75;5038090;28;45482;-54
2023/01/08 06:23:50;;;;;;;;;0.67;0.00;;;;;10.83;65.33;99590.69;5043907;28;45673;-58
2023/01/08 06:26:16;;;;;;;;;0.00;0.00;;;;;10.73;65.23;99589.47;5038669;28;45509;-53
2023/01/08 06:28:41;;;;;;;;;0.00;0.00;;;;;10.75;65.20;99598.13;5020575;28;45448;-57
2023/01/08 06:31:06;;;;;;;;;0.00;0.00;;;;;10.68;65.83;99599.38;5038858;28;45370;-56
2023/01/08 06:33:32;;;;;;;;;0.00;0.00;;;;;10.64;66.50;99602.22;5038554;28;45467;-59
2023/01/08 06:36:01;;;;;;;;;0.00;0.00;;;;;10.59;66.01;99603.34;5038110;28;45474;-55
2023/01/08 06:38:30;;;;;;;;;0.00;0.00;;;;;10.48;67.45;99599.56;5038951;28;45376;-56
2023/01/08 06:40:55;;;;;;;;;0.00;0.00;;;;;10.54;67.01;99604.50;5035708;28;45472;-55
2023/01/08 06:43:21;;;;;;;;;0.00;0.00;;;;;10.50;67.21;99605.56;5037828;28;48168;-59
2023/01/08 06:45:52;;;;;;;;;0.00;0.00;;;;;10.44;67.57;99598.84;5038059;28;45439;-58
2023/01/08 06:48:17;;;;;;;;;0.00;0.00;;;;;10.51;67.27;99602.03;5028669;28;45490;-57
2023/01/08 06:50:43;;;;;;;;;0.00;0.00;;;;;10.51;68.08;99602.88;5038489;28;45506;-56
2023/01/08 06:53:08;;;;;;;;;0.00;0.00;;;;;10.49;67.79;99607.34;5037843;28;47018;-61
2023/01/08 06:55:33;;;;;;;;;0.00;0.00;;;;;10.49;68.23;99598.63;5038396;28;45336;-57
2023/01/08 06:57:58;;;;;;;;;0.00;0.00;;;;;10.51;68.51;99599.41;5038295;28;45362;-60
2023/01/08 07:00:26;;;;;;;;;0.00;0.00;;;;;10.49;68.11;99601.25;5038036;28;45457;-56
2023/01/08 07:02:52;;;;;;;;;0.00;0.00;;;;;10.46;69.21;99602.25;5037899;28;46178;-61
2023/01/08 07:05:17;;;;;;;;;0.00;0.00;;;;;10.46;69.33;99594.38;5036700;28;45525;-56
2023/01/08 07:07:43;;;;;;;;;0.00;0.00;;;;;10.50;68.62;99598.53;5032622;28;45570;-55
2023/01/08 07:10:09;;;;;;;;;0.00;0.00;;;;;10.53;68.59;99600.16;5038101;28;45398;-59
2023/01/08 07:12:34;;;;;;;;;0.00;0.00;;;;;10.51;68.46;99599.41;5019268;28;46031;-52
2023/01/08 07:15:00;;;;;;;;;0.00;0.00;;;;;10.48;68.94;99595.16;5022977;28;45576;-57
2023/01/08 07:17:26;;;;;;;;;1.00;0.00;;;;;10.55;68.80;99590.41;5035425;28;45527;-57
2023/01/08 07:19:51;;;;;;;;;2.00;1.00;;;;;10.54;69.28;99589.56;5037039;28;45482;-53
2023/01/08 07:22:16;;;;;;;;;0.00;0.00;;;;;10.56;69.07;99598.25;5036802;28;45494;-55
2023/01/08 07:27:04;;;;;;;;;0.00;0.00;;;;;10.51;70.11;99594.16;5111269;27;45379;-55
2023/01/08 07:29:29;;;;;;;;;0.00;0.00;;;;;10.51;70.36;99594.16;5092393;27;45418;-59
2023/01/08 07:31:54;;;;;;;;;1.00;0.33;;;;;10.52;70.98;99595.84;5093024;27;45390;-56
2023/01/08 07:34:20;;;;;;;;;0.00;0.00;;;;;10.58;70.83;99592.88;5091117;27;45443;-56
2023/01/08 07:36:45;;;;;;;;;0.00;0.00;;;;;10.59;70.66;99594.59;5092756;27;45500;-54
2023/01/08 07:39:10;;;;;;;;;2.00;0.67;;;;;10.57;70.71;99589.41;5092207;27;45370;-52
2023/01/08 07:41:36;;;;;;;;;0.00;0.00;;;;;10.60;70.58;99596.28;5091173;27;45508;-52
2023/01/08 07:44:01;;;;;;;;;1.00;0.00;;;;;10.62;69.87;99591.81;5092468;27;45632;-53
2023/01/08 07:46:26;;;;;;;;;0.67;0.67;;;;;10.63;70.61;99593.50;5092812;27;46027;-56
2023/01/08 07:48:51;;;;;;;;;1.00;1.00;;;;;10.62;70.54;99591.81;5106353;27;45456;-58
2023/01/08 07:51:17;;;;;;;;;0.00;0.00;;;;;10.61;70.48;99587.47;5107704;27;45611;-55
2023/01/08 07:53:42;;;;;;;;;0.33;0.33;;;;;10.66;69.82;99590.72;5100314;27;45322;-58
2023/01/08 07:56:09;;;;;;;;;0.00;0.00;;;;;10.66;70.57;99585.44;5092019;27;45336;-56
2023/01/08 07:58:35;;;;;;;;;1.00;1.00;;;;;10.65;70.63;99577.66;5092030;27;45450;-56
2023/01/08 08:01:01;;;;;;;;;0.00;0.00;;;;;10.67;70.59;99579.28;5090742;27;45463;-58
2023/01/08 08:03:27;;;;;;;;;0.67;0.67;;;;;10.62;70.48;99565.53;5105874;27;45569;-54
2023/01/08 08:05:52;;;;;;;;;2.33;1.00;;;;;10.73;70.13;99580.72;5090393;27;47213;-55
2023/01/08 08:08:18;;;;;;;;;1.00;0.00;;;;;10.77;70.84;99580.50;5092494;27;45443;-52
2023/01/08 08:10:44;;;;;;;;;2.33;1.00;;;;;10.75;70.39;99576.25;5090207;27;45473;-54
2023/01/08 08:13:11;;;;;;;;;0.00;0.00;;;;;10.73;70.90;99570.22;5089022;27;45512;-56
2023/01/08 08:15:38;;;;;;;;;1.00;1.00;;;;;10.76;70.26;99584.03;5090965;27;46125;-56
2023/01/08 08:18:03;;;;;;;;;0.33;0.33;;;;;10.68;70.77;99577.50;5090907;27;45472;-58
2023/01/08 08:20:29;;;;;;;;;0.67;0.00;;;;;10.73;71.11;99571.06;5085893;27;45462;-52
2023/01/08 08:23:11;;;;;;;;;1.67;1.00;;;;;10.75;70.29;99569.22;5071464;27;45443;-55
2023/01/08 08:25:37;;;;;;;;;0.00;0.00;;;;;10.69;70.72;99561.63;5071096;27;47220;-53
2023/01/08 08:28:03;;;;;;;;;0.33;0.00;;;;;10.69;70.92;99563.41;5078022;27;45440;-57
2023/01/08 08:30:30;;;;;;;;;0.00;0.00;;;;;10.65;71.05;99554.84;5071490;27;45524;-54
2023/01/08 08:32:59;;;;;;;;;1.00;1.00;;;;;10.73;70.67;99557.91;5071294;27;45357;-53
2023/01/08 08:35:24;;;;;;;;;1.00;1.00;;;;;10.72;71.26;99555.34;5085455;27;46265;-56
2023/01/08 08:37:49;;;;;;;;;0.33;0.33;;;;;10.72;71.85;99555.34;5073349;27;45528;-56
2023/01/08 08:40:15;;;;;;;;;0.00;0.00;;;;;10.75;71.12;99552.59;5061452;28;45448;-52
2023/01/08 08:42:40;;;;;;;;;0.00;0.00;;;;;10.77;70.82;99548.94;5063965;28;45527;-53
2023/01/08 08:45:06;;;;;;;;;1.67;0.33;;;;;10.77;71.71;99548.94;5068250;28;46037;-59
2023/01/08 08:47:32;;;;;;;;;1.00;1.00;;;;;10.75;71.62;99545.53;5078328;27;45354;-58
2023/01/08 08:49:57;;;;;;;;;1.00;0.00;;;;;10.74;70.82;99532.47;5072915;28;45430;-60
2023/01/08 08:52:22;;;;;;;;;0.00;0.00;;;;;10.74;70.99;99533.28;5072144;28;45431;-58
2023/01/08 08:54:48;;;;;;;;;1.33;0.00;;;;;10.75;71.13;99537.66;5076511;28;46199;-56
2023/01/08 08:57:13;;;;;;;;;1.00;0.00;;;;;10.72;70.14;99534.31;5074291;28;45416;-57
2023/01/08 08:59:38;;;;;;;;;0.67;0.67;;;;;10.75;71.11;99529.75;5071796;28;45397;-54
2023/01/08 09:02:04;;;;;;;;;0.00;0.00;;;;;10.78;70.90;99526.97;5069997;27;45607;-56
2023/01/08 09:04:31;;;;;;;;;0.00;0.00;;;;;10.79;70.86;99531.28;5070370;28;46085;-58
2023/01/08 09:06:57;;;;;;;;;0.00;0.00;;;;;10.81;70.10;99539.94;5076568;28;45476;-55
2023/01/08 09:09:22;;;;;;;;;1.00;0.33;;;;;10.83;70.70;99535.47;5077664;27;45521;-55
2023/01/08 09:11:47;;;;;;;;;0.00;0.00;;;;;10.84;70.13;99534.50;5078044;27;45661;-58
2023/01/08 09:14:13;;;;;;;;;1.00;1.00;;;;;10.88;69.62;99529.09;5077615;28;46145;-57
2023/01/08 09:16:38;;;;;;;;;1.67;1.00;;;;;10.90;69.93;99543.00;5077952;28;45472;-55
2023/01/08 09:19:05;;;;;;;;;0.33;0.33;;;;;10.93;70.20;99542.84;5068429;28;47348;-50
2023/01/08 09:21:30;;;;;;;;;0.67;0.67;;;;;10.94;69.32;99547.19;5069756;28;45429;-59
2023/01/08 09:23:56;;;;;;;;;0.00;0.00;;;;;10.94;69.04;99548.03;5077370;28;45950;-54
2023/01/08 09:26:21;;;;;;;;;1.00;1.00;;;;;10.94;69.44;99536.66;5077493;28;45521;-52
2023/01/08 09:28:46;;;;;;;;;1.00;1.00;;;;;10.88;69.62;99542.22;5076703;28;45774;-54
2023/01/08 09:31:12;;;;;;;;;0.00;0.00;;;;;10.95;68.74;99540.97;5077814;28;45312;-54
2023/01/08 09:33:37;;;;;;;;;1.00;1.00;;;;;10.94;69.21;99531.41;5064856;28;45373;-53
2023/01/08 09:36:02;;;;;;;;;0.00;0.00;;;;;11.00;69.30;99537.16;5077866;27;45394;-54
2023/01/08 09:38:28;;;;;;;;;1.00;1.00;;;;;11.01;68.33;99530.97;5077720;27;45458;-57
2023/01/08 09:41:03;;;;;;;;;1.00;1.00;;;;;11.06;68.10;99538.63;5076297;28;45568;-56
2023/01/08 09:43:33;;;;;;;;;0.00;0.00;;;;;11.06;68.04;99538.63;5077788;27;46164;-58
2023/01/08 09:46:02;;;;;;;;;0.00;0.00;;;;;11.05;68.44;99543.03;5077166;28;45387;-57
2023/01/08 09:48:31;;;;;;;;;1.00;1.00;;;;;11.01;67.62;99538.84;5069226;28;45374;-56
2023/01/08 09:50:57;;;;;;;;;0.00;0.00;;;;;10.97;67.91;99542.59;5077438;28;45504;-57
2023/01/08 09:53:23;;;;;;;;;0.33;0.33;;;;;10.98;67.29;99546.06;5077277;27;46123;-59
2023/01/08 09:55:59;;;;;;;;;0.00;0.00;;;;;10.94;68.46;99555.94;5077291;28;45433;-57
2023/01/08 09:58:37;;;;;;;;;2.00;1.00;;;;;10.88;67.96;99551.00;5075926;27;45409;-57
2023/01/08 10:01:04;;;;;;;;;0.67;0.00;;;;;10.94;68.08;99547.19;5070613;27;45460;-53
2023/01/08 10:03:39;;;;;;;;;0.00;0.00;;;;;10.94;67.84;99540.16;5061173;28;46344;-57
2023/01/08 10:06:12;;;;;;;;;0.00;0.00;;;;;10.95;68.04;99533.94;5083949;27;45434;-57
2023/01/08 10:08:38;;;;;;;;;1.00;1.00;;;;;10.95;67.79;99536.56;5070292;28;45556;-57
2023/01/08 10:11:05;;;;;;;;;0.00;0.00;;;;;10.95;67.59;99527.84;5070072;28;45516;-62
2023/01/08 10:13:33;;;;;;;;;1.67;1.00;;;;;10.99;68.47;99532.00;5060408;27;47397;-57
2023/01/08 10:15:59;;;;;;;;;1.00;1.00;;;;;10.99;67.44;99529.38;5058072;28;45500;-52
2023/01/08 10:18:26;;;;;;;;;1.00;1.00;;;;;11.01;68.24;99528.34;5076890;28;45339;-57
2023/01/08 10:20:51;;;;;;;;;1.00;0.00;;;;;11.03;68.83;99533.53;5076543;28;45397;-57
2023/01/08 10:23:19;;;;;;;;;2.00;1.00;;;;;11.05;67.91;99531.66;5076127;27;45458;-55
2023/01/08 10:25:56;;;;;;;;;0.67;0.67;;;;;11.08;68.39;99526.22;5076210;28;45511;-56
2023/01/08 10:28:34;;;;;;;;;1.67;0.00;;;;;11.04;68.47;99525.56;5072077;28;45527;-53
2023/01/08 10:31:07;;;;;;;;;0.00;0.00;;;;;11.07;68.49;99521.91;5067808;28;45503;-60
2023/01/08 10:33:48;;;;;;;;;1.00;1.00;;;;;11.07;67.68;99519.28;5073680;27;45582;-57
2023/01/08 10:36:17;;;;;;;;;0.00;0.00;;;;;11.09;67.51;99512.13;5066847;28;45513;-54
2023/01/08 10:39:00;;;;;;;;;1.00;0.33;;;;;11.06;68.06;99517.56;5076124;27;45536;-60
2023/01/08 10:41:27;;;;;;;;;1.00;1.00;;;;;11.13;68.09;99512.84;5074092;28;45588;-57
2023/01/08 10:44:04;;;;;;;;;2.33;1.00;;;;;11.07;67.87;99487.72;5075717;28;45471;-58
2023/01/08 10:46:34;;;;;;;;;2.00;0.33;;;;;11.15;67.67;99503.94;5075980;28;45398;-56
2023/01/08 10:49:02;;;;;;;;;1.00;1.00;;;;;11.14;67.45;99488.19;5075938;27;45429;-61
2023/01/08 10:51:30;;;;;;;;;1.33;1.33;;;;;11.14;67.96;99494.31;5076120;27;45441;-58
2023/01/08 10:54:11;;;;;;;;;1.00;1.00;;;;;11.15;67.90;99495.16;5075738;28;46284;-59
2023/01/08 10:56:42;;;;;;;;;2.00;2.00;;;;;11.16;67.78;99502.13;5075988;28;45425;-58
2023/01/08 10:59:21;;;;;;;;;0.00;0.00;;;;;11.17;66.67;99491.50;5075851;28;45731;-53
2023/01/08 11:01:49;;;;;;;;;0.00;0.00;;;;;11.18;66.44;99498.47;5075710;28;45491;-55
2023/01/08 11:04:27;;;;;;;;;1.00;1.00;;;;;11.13;66.00;99492.63;5074154;28;46353;-57
2023/01/08 11:06:58;;;;;;;;;1.00;1.00;;;;;11.16;66.22;99489.81;5075617;27;45419;-54
2023/01/08 11:09:28;;;;;;;;;0.33;0.33;;;;;11.22;65.57;99492.09;5075921;27;45467;-58
2023/01/08 11:11:54;;;;;;;;;1.00;0.00;;;;;11.23;65.32;99485.91;5075861;28;45643;-57
2023/01/08 11:14:34;;;;;;;;;2.00;2.00;;;;;11.18;64.70;99471.31;5075461;27;45931;-51
2023/01/08 11:17:07;;;;;;;;;2.00;0.00;;;;;11.16;65.41;99471.41;5075523;28;45536;-52
2023/01/08 11:19:33;;;;;;;;;1.00;0.33;;;;;11.16;65.01;99471.41;5075643;27;45500;-58
2023/01/08 11:22:01;;;;;;;;;1.00;1.00;;;;;11.15;64.98;99464.44;5075885;28;45380;-60
2023/01/08 11:24:31;;;;;;;;;2.00;1.00;;;;;11.13;65.70;99453.16;5075472;28;45449;-58
2023/01/08 11:27:22;;;;;;;;;2.33;1.33;;;;;11.15;65.42;99461.81;5061237;28;45438;-56
2023/01/08 11:30:05;;;;;;;;;1.67;1.67;;;;;11.18;66.42;99448.47;5072758;28;45489;-57
2023/01/08 11:32:52;;;;;;;;;2.00;2.00;;;;;11.17;65.36;99424.88;5075430;27;45551;-58
2023/01/08 11:35:25;;;;;;;;;0.67;0.67;;;;;11.24;65.77;99427.06;5073963;28;46065;-61
2023/01/08 11:38:01;;;;;;;;;2.67;1.00;;;;;11.22;65.99;99420.19;5075359;28;45393;-57
2023/01/08 11:40:29;;;;;;;;;2.67;0.67;;;;;11.20;65.50;99403.66;5073753;27;45479;-58
2023/01/08 11:43:03;;;;;;;;;3.00;2.00;;;;;11.22;65.21;99404.41;5062865;28;45656;-61